Matlacha Isles, Florida
Current Conditions -  °F | °C
As of 1:53 PM on Monday 20 Oct 2014 (Local Time) from KFMY Reporting Station
Clear Clear  
Wind Chill: 86°   Ceiling: Unl
Heat Index: 87°   Visibility: 10mi
Dew Point: 63°   Wind: 6mph
Humidity: 46%   Direction: 170°S
Pressure: 29.96"   Gusts: NA
Location:  26.63°N, 82.015°W
Report Text: KFMY 201753Z 17005KT 10SM CLR 30/17 A2996 RMK AO2 SLP146 T03000172 10300 20200 58024
Loading
Personal Weather Stations






























Interactive Weather Map
Tropical Storm Tracking
New forecast layout! Learn more

10-Day Weather Forecast

Advertisements
Track Severe Weather on mobile